sensor_id;sensor_type;location;lat;lon;timestamp;P1;durP1;ratioP1;P2;durP2;ratioP2
11008;SDS011;5557;51.670;7.788;2023-10-19T00:01:26;8.63;;;7.93;;
11008;SDS011;5557;51.670;7.788;2023-10-19T00:03:54;7.63;;;6.90;;
11008;SDS011;5557;51.670;7.788;2023-10-19T00:06:25;9.23;;;7.57;;
11008;SDS011;5557;51.670;7.788;2023-10-19T00:08:52;14.17;;;8.20;;
11008;SDS011;5557;51.670;7.788;2023-10-19T00:11:19;7.70;;;7.20;;
11008;SDS011;5557;51.670;7.788;2023-10-19T00:13:50;7.70;;;7.10;;
11008;SDS011;5557;51.670;7.788;2023-10-19T00:16:20;8.93;;;7.77;;
11008;SDS011;5557;51.670;7.788;2023-10-19T00:18:57;9.40;;;8.40;;
11008;SDS011;5557;51.670;7.788;2023-10-19T00:21:26;7.93;;;7.23;;
11008;SDS011;5557;51.670;7.788;2023-10-19T00:23:58;8.50;;;7.90;;
11008;SDS011;5557;51.670;7.788;2023-10-19T00:26:32;11.87;;;10.77;;
11008;SDS011;5557;51.670;7.788;2023-10-19T00:28:59;20.20;;;15.67;;
11008;SDS011;5557;51.670;7.788;2023-10-19T00:31:40;23.30;;;18.30;;
11008;SDS011;5557;51.670;7.788;2023-10-19T00:34:08;15.60;;;13.60;;
11008;SDS011;5557;51.670;7.788;2023-10-19T00:36:39;15.80;;;11.80;;
11008;SDS011;5557;51.670;7.788;2023-10-19T00:39:06;12.23;;;11.13;;
11008;SDS011;5557;51.670;7.788;2023-10-19T00:41:42;12.23;;;10.70;;
11008;SDS011;5557;51.670;7.788;2023-10-19T00:44:11;9.90;;;9.10;;
11008;SDS011;5557;51.670;7.788;2023-10-19T00:46:41;10.73;;;9.03;;
11008;SDS011;5557;51.670;7.788;2023-10-19T00:49:16;9.20;;;8.50;;
11008;SDS011;5557;51.670;7.788;2023-10-19T00:51:45;9.90;;;9.00;;
11008;SDS011;5557;51.670;7.788;2023-10-19T00:54:37;10.90;;;9.80;;
11008;SDS011;5557;51.670;7.788;2023-10-19T00:57:18;10.73;;;9.73;;
11008;SDS011;5557;51.670;7.788;2023-10-19T01:00:12;10.30;;;9.30;;
11008;SDS011;5557;51.670;7.788;2023-10-19T01:02:47;10.00;;;9.10;;
11008;SDS011;5557;51.670;7.788;2023-10-19T01:05:18;12.73;;;11.03;;
11008;SDS011;5557;51.670;7.788;2023-10-19T01:07:48;10.83;;;9.30;;
11008;SDS011;5557;51.670;7.788;2023-10-19T01:10:23;9.97;;;9.20;;
11008;SDS011;5557;51.670;7.788;2023-10-19T01:12:51;9.77;;;8.90;;
11008;SDS011;5557;51.670;7.788;2023-10-19T01:15:18;9.87;;;8.97;;
11008;SDS011;5557;51.670;7.788;2023-10-19T01:17:56;12.97;;;10.20;;
11008;SDS011;5557;51.670;7.788;2023-10-19T01:20:28;10.83;;;9.90;;
11008;SDS011;5557;51.670;7.788;2023-10-19T01:23:06;10.93;;;9.93;;
11008;SDS011;5557;51.670;7.788;2023-10-19T01:25:48;11.80;;;10.07;;
11008;SDS011;5557;51.670;7.788;2023-10-19T01:28:32;11.23;;;10.13;;
11008;SDS011;5557;51.670;7.788;2023-10-19T01:31:18;11.43;;;10.23;;
11008;SDS011;5557;51.670;7.788;2023-10-19T01:33:49;11.30;;;9.87;;
11008;SDS011;5557;51.670;7.788;2023-10-19T01:36:17;11.60;;;9.90;;
11008;SDS011;5557;51.670;7.788;2023-10-19T01:38:54;17.00;;;10.07;;
11008;SDS011;5557;51.670;7.788;2023-10-19T01:41:25;11.60;;;9.90;;
11008;SDS011;5557;51.670;7.788;2023-10-19T01:43:54;11.37;;;10.17;;
11008;SDS011;5557;51.670;7.788;2023-10-19T01:46:25;13.23;;;10.50;;
11008;SDS011;5557;51.670;7.788;2023-10-19T01:48:58;10.80;;;9.70;;
11008;SDS011;5557;51.670;7.788;2023-10-19T01:51:27;11.43;;;10.40;;
11008;SDS011;5557;51.670;7.788;2023-10-19T01:53:58;11.47;;;10.37;;
11008;SDS011;5557;51.670;7.788;2023-10-19T01:56:27;11.70;;;10.40;;
11008;SDS011;5557;51.670;7.788;2023-10-19T01:58:55;11.17;;;10.07;;
11008;SDS011;5557;51.670;7.788;2023-10-19T02:01:24;14.90;;;10.57;;
11008;SDS011;5557;51.670;7.788;2023-10-19T02:03:56;11.63;;;10.57;;
11008;SDS011;5557;51.670;7.788;2023-10-19T02:06:28;11.90;;;10.80;;
11008;SDS011;5557;51.670;7.788;2023-10-19T02:09:03;11.93;;;10.60;;
11008;SDS011;5557;51.670;7.788;2023-10-19T02:11:45;11.60;;;10.47;;
11008;SDS011;5557;51.670;7.788;2023-10-19T02:14:14;12.30;;;11.10;;
11008;SDS011;5557;51.670;7.788;2023-10-19T02:16:44;12.13;;;10.93;;
11008;SDS011;5557;51.670;7.788;2023-10-19T02:19:34;12.03;;;10.73;;
11008;SDS011;5557;51.670;7.788;2023-10-19T02:22:03;12.53;;;11.23;;
11008;SDS011;5557;51.670;7.788;2023-10-19T02:24:32;13.47;;;10.90;;
11008;SDS011;5557;51.670;7.788;2023-10-19T02:27:00;11.63;;;10.40;;
11008;SDS011;5557;51.670;7.788;2023-10-19T02:29:30;15.57;;;10.70;;
11008;SDS011;5557;51.670;7.788;2023-10-19T02:31:58;10.87;;;9.70;;
11008;SDS011;5557;51.670;7.788;2023-10-19T02:34:32;11.93;;;9.50;;
11008;SDS011;5557;51.670;7.788;2023-10-19T02:37:03;11.53;;;10.40;;
11008;SDS011;5557;51.670;7.788;2023-10-19T02:39:31;11.50;;;10.50;;
11008;SDS011;5557;51.670;7.788;2023-10-19T02:41:58;11.43;;;9.60;;
11008;SDS011;5557;51.670;7.788;2023-10-19T02:44:29;11.20;;;10.03;;
11008;SDS011;5557;51.670;7.788;2023-10-19T02:46:57;11.97;;;10.70;;
11008;SDS011;5557;51.670;7.788;2023-10-19T02:49:36;11.73;;;10.63;;
11008;SDS011;5557;51.670;7.788;2023-10-19T02:52:06;12.43;;;11.03;;
11008;SDS011;5557;51.670;7.788;2023-10-19T02:54:33;11.67;;;10.57;;
11008;SDS011;5557;51.670;7.788;2023-10-19T02:57:03;17.63;;;13.77;;
11008;SDS011;5557;51.670;7.788;2023-10-19T02:59:36;13.93;;;12.37;;
11008;SDS011;5557;51.670;7.788;2023-10-19T03:02:04;19.13;;;13.50;;
11008;SDS011;5557;51.670;7.788;2023-10-19T03:04:44;15.70;;;11.83;;
11008;SDS011;5557;51.670;7.788;2023-10-19T03:07:13;12.87;;;11.00;;
11008;SDS011;5557;51.670;7.788;2023-10-19T03:09:44;11.50;;;10.30;;
11008;SDS011;5557;51.670;7.788;2023-10-19T03:12:16;13.97;;;10.57;;
11008;SDS011;5557;51.670;7.788;2023-10-19T03:14:46;11.03;;;10.10;;
11008;SDS011;5557;51.670;7.788;2023-10-19T03:17:15;10.63;;;9.73;;
11008;SDS011;5557;51.670;7.788;2023-10-19T03:19:44;10.60;;;9.57;;
11008;SDS011;5557;51.670;7.788;2023-10-19T03:22:12;10.03;;;9.10;;
11008;SDS011;5557;51.670;7.788;2023-10-19T03:24:43;9.27;;;8.47;;
11008;SDS011;5557;51.670;7.788;2023-10-19T03:27:13;10.27;;;9.20;;
11008;SDS011;5557;51.670;7.788;2023-10-19T03:29:48;9.63;;;8.83;;
11008;SDS011;5557;51.670;7.788;2023-10-19T03:32:29;11.63;;;9.00;;
11008;SDS011;5557;51.670;7.788;2023-10-19T03:35:05;9.80;;;8.90;;
11008;SDS011;5557;51.670;7.788;2023-10-19T03:37:35;10.40;;;9.60;;
11008;SDS011;5557;51.670;7.788;2023-10-19T03:40:05;9.60;;;8.80;;
11008;SDS011;5557;51.670;7.788;2023-10-19T03:42:37;9.03;;;8.30;;
11008;SDS011;5557;51.670;7.788;2023-10-19T03:45:07;11.47;;;10.33;;
11008;SDS011;5557;51.670;7.788;2023-10-19T03:47:42;11.10;;;10.00;;
11008;SDS011;5557;51.670;7.788;2023-10-19T03:50:12;12.43;;;10.13;;
11008;SDS011;5557;51.670;7.788;2023-10-19T03:52:43;11.40;;;9.77;;
11008;SDS011;5557;51.670;7.788;2023-10-19T03:55:12;18.30;;;9.87;;
11008;SDS011;5557;51.670;7.788;2023-10-19T03:57:45;12.40;;;9.97;;
11008;SDS011;5557;51.670;7.788;2023-10-19T04:00:22;24.83;;;22.83;;
11008;SDS011;5557;51.670;7.788;2023-10-19T04:02:55;10.13;;;7.50;;
11008;SDS011;5557;51.670;7.788;2023-10-19T04:05:25;8.00;;;7.20;;
11008;SDS011;5557;51.670;7.788;2023-10-19T04:07:55;8.00;;;7.40;;
11008;SDS011;5557;51.670;7.788;2023-10-19T04:10:25;7.43;;;6.30;;
11008;SDS011;5557;51.670;7.788;2023-10-19T04:13:19;6.73;;;6.43;;
11008;SDS011;5557;51.670;7.788;2023-10-19T04:15:46;6.70;;;6.20;;
11008;SDS011;5557;51.670;7.788;2023-10-19T04:18:16;7.80;;;7.20;;
11008;SDS011;5557;51.670;7.788;2023-10-19T04:20:43;6.33;;;5.73;;
11008;SDS011;5557;51.670;7.788;2023-10-19T04:23:22;7.20;;;6.60;;
11008;SDS011;5557;51.670;7.788;2023-10-19T04:26:01;10.83;;;6.13;;
11008;SDS011;5557;51.670;7.788;2023-10-19T04:28:37;7.03;;;5.70;;
11008;SDS011;5557;51.670;7.788;2023-10-19T04:31:11;6.93;;;5.80;;
11008;SDS011;5557;51.670;7.788;2023-10-19T04:33:41;6.43;;;5.60;;
11008;SDS011;5557;51.670;7.788;2023-10-19T04:36:13;4.93;;;4.63;;
11008;SDS011;5557;51.670;7.788;2023-10-19T04:38:41;5.00;;;4.77;;
11008;SDS011;5557;51.670;7.788;2023-10-19T04:41:08;10.73;;;4.40;;
11008;SDS011;5557;51.670;7.788;2023-10-19T04:43:36;4.70;;;4.50;;
11008;SDS011;5557;51.670;7.788;2023-10-19T04:46:06;4.67;;;4.37;;
11008;SDS011;5557;51.670;7.788;2023-10-19T04:48:39;5.60;;;4.77;;
11008;SDS011;5557;51.670;7.788;2023-10-19T04:51:06;6.20;;;5.90;;
11008;SDS011;5557;51.670;7.788;2023-10-19T04:53:36;4.40;;;4.20;;
11008;SDS011;5557;51.670;7.788;2023-10-19T04:56:04;3.67;;;3.53;;
11008;SDS011;5557;51.670;7.788;2023-10-19T04:58:35;4.07;;;3.40;;
11008;SDS011;5557;51.670;7.788;2023-10-19T05:01:04;3.50;;;3.40;;
11008;SDS011;5557;51.670;7.788;2023-10-19T05:03:31;3.40;;;3.30;;
11008;SDS011;5557;51.670;7.788;2023-10-19T05:05:59;3.77;;;3.23;;
11008;SDS011;5557;51.670;7.788;2023-10-19T05:08:27;3.90;;;3.07;;
11008;SDS011;5557;51.670;7.788;2023-10-19T05:10:55;5.03;;;3.03;;
11008;SDS011;5557;51.670;7.788;2023-10-19T05:13:26;3.63;;;3.00;;
11008;SDS011;5557;51.670;7.788;2023-10-19T05:15:54;11.03;;;3.23;;
11008;SDS011;5557;51.670;7.788;2023-10-19T05:18:21;2.70;;;2.50;;
11008;SDS011;5557;51.670;7.788;2023-10-19T05:20:49;3.40;;;3.20;;
11008;SDS011;5557;51.670;7.788;2023-10-19T05:23:24;3.23;;;2.93;;
11008;SDS011;5557;51.670;7.788;2023-10-19T05:25:52;2.30;;;2.17;;
11008;SDS011;5557;51.670;7.788;2023-10-19T05:28:26;2.80;;;2.37;;
11008;SDS011;5557;51.670;7.788;2023-10-19T05:30:53;5.00;;;2.53;;
11008;SDS011;5557;51.670;7.788;2023-10-19T05:33:21;3.07;;;2.80;;
11008;SDS011;5557;51.670;7.788;2023-10-19T05:35:50;8.00;;;3.23;;
11008;SDS011;5557;51.670;7.788;2023-10-19T05:38:17;4.30;;;3.90;;
11008;SDS011;5557;51.670;7.788;2023-10-19T05:40:48;3.00;;;2.80;;
11008;SDS011;5557;51.670;7.788;2023-10-19T05:43:18;3.50;;;2.93;;
11008;SDS011;5557;51.670;7.788;2023-10-19T05:45:45;4.80;;;2.70;;
11008;SDS011;5557;51.670;7.788;2023-10-19T05:48:16;3.40;;;3.20;;
11008;SDS011;5557;51.670;7.788;2023-10-19T05:50:44;3.10;;;3.00;;
11008;SDS011;5557;51.670;7.788;2023-10-19T05:53:11;3.10;;;2.70;;
11008;SDS011;5557;51.670;7.788;2023-10-19T05:55:38;3.27;;;3.03;;
11008;SDS011;5557;51.670;7.788;2023-10-19T05:58:06;3.83;;;3.20;;
11008;SDS011;5557;51.670;7.788;2023-10-19T06:00:33;6.00;;;3.60;;
11008;SDS011;5557;51.670;7.788;2023-10-19T06:03:01;3.40;;;3.07;;
11008;SDS011;5557;51.670;7.788;2023-10-19T06:05:28;6.50;;;3.90;;
11008;SDS011;5557;51.670;7.788;2023-10-19T06:07:57;4.30;;;3.90;;
11008;SDS011;5557;51.670;7.788;2023-10-19T06:10:27;4.27;;;3.70;;
11008;SDS011;5557;51.670;7.788;2023-10-19T06:12:55;4.60;;;4.20;;
11008;SDS011;5557;51.670;7.788;2023-10-19T06:15:23;7.33;;;4.60;;
11008;SDS011;5557;51.670;7.788;2023-10-19T06:17:51;7.37;;;4.30;;
11008;SDS011;5557;51.670;7.788;2023-10-19T06:20:19;4.50;;;3.37;;
11008;SDS011;5557;51.670;7.788;2023-10-19T06:22:50;3.53;;;3.33;;
11008;SDS011;5557;51.670;7.788;2023-10-19T06:25:19;3.50;;;3.30;;
11008;SDS011;5557;51.670;7.788;2023-10-19T06:27:48;7.83;;;4.23;;
11008;SDS011;5557;51.670;7.788;2023-10-19T06:30:16;4.63;;;3.40;;
11008;SDS011;5557;51.670;7.788;2023-10-19T06:32:46;4.57;;;3.90;;
11008;SDS011;5557;51.670;7.788;2023-10-19T06:35:15;6.40;;;5.13;;
11008;SDS011;5557;51.670;7.788;2023-10-19T06:37:43;10.23;;;4.43;;
11008;SDS011;5557;51.670;7.788;2023-10-19T06:40:11;5.87;;;5.23;;
11008;SDS011;5557;51.670;7.788;2023-10-19T06:42:41;5.03;;;4.30;;
11008;SDS011;5557;51.670;7.788;2023-10-19T06:45:09;3.57;;;3.27;;
11008;SDS011;5557;51.670;7.788;2023-10-19T06:47:43;4.97;;;3.77;;
11008;SDS011;5557;51.670;7.788;2023-10-19T06:50:16;4.13;;;3.83;;
11008;SDS011;5557;51.670;7.788;2023-10-19T06:52:44;7.93;;;3.50;;
11008;SDS011;5557;51.670;7.788;2023-10-19T06:55:16;3.77;;;3.50;;
11008;SDS011;5557;51.670;7.788;2023-10-19T06:57:49;6.70;;;3.30;;
11008;SDS011;5557;51.670;7.788;2023-10-19T07:00:18;3.20;;;3.10;;
11008;SDS011;5557;51.670;7.788;2023-10-19T07:02:47;6.10;;;4.47;;
11008;SDS011;5557;51.670;7.788;2023-10-19T07:05:19;4.90;;;3.30;;
11008;SDS011;5557;51.670;7.788;2023-10-19T07:07:56;3.70;;;3.50;;
11008;SDS011;5557;51.670;7.788;2023-10-19T07:10:26;5.93;;;3.90;;
11008;SDS011;5557;51.670;7.788;2023-10-19T07:12:55;3.87;;;3.57;;
11008;SDS011;5557;51.670;7.788;2023-10-19T07:15:24;6.43;;;3.90;;
11008;SDS011;5557;51.670;7.788;2023-10-19T07:17:53;8.10;;;4.00;;
11008;SDS011;5557;51.670;7.788;2023-10-19T07:20:25;3.67;;;3.33;;
11008;SDS011;5557;51.670;7.788;2023-10-19T07:22:56;8.07;;;3.57;;
11008;SDS011;5557;51.670;7.788;2023-10-19T07:25:36;5.90;;;3.43;;
11008;SDS011;5557;51.670;7.788;2023-10-19T07:28:14;7.20;;;3.40;;
11008;SDS011;5557;51.670;7.788;2023-10-19T07:30:42;3.60;;;3.07;;
11008;SDS011;5557;51.670;7.788;2023-10-19T07:33:11;4.37;;;3.50;;
11008;SDS011;5557;51.670;7.788;2023-10-19T07:35:44;3.80;;;3.50;;
11008;SDS011;5557;51.670;7.788;2023-10-19T07:38:13;4.00;;;3.60;;
11008;SDS011;5557;51.670;7.788;2023-10-19T07:40:41;3.50;;;3.20;;
11008;SDS011;5557;51.670;7.788;2023-10-19T07:43:10;3.93;;;3.63;;
11008;SDS011;5557;51.670;7.788;2023-10-19T07:45:37;4.07;;;3.53;;
11008;SDS011;5557;51.670;7.788;2023-10-19T07:48:04;4.00;;;3.70;;
11008;SDS011;5557;51.670;7.788;2023-10-19T07:50:38;11.73;;;3.50;;
11008;SDS011;5557;51.670;7.788;2023-10-19T07:53:09;4.10;;;3.57;;
11008;SDS011;5557;51.670;7.788;2023-10-19T07:55:36;4.20;;;3.77;;
11008;SDS011;5557;51.670;7.788;2023-10-19T07:58:05;7.37;;;5.17;;
11008;SDS011;5557;51.670;7.788;2023-10-19T08:00:33;3.53;;;3.33;;
11008;SDS011;5557;51.670;7.788;2023-10-19T08:03:01;6.90;;;3.73;;
11008;SDS011;5557;51.670;7.788;2023-10-19T08:05:29;3.50;;;3.27;;
11008;SDS011;5557;51.670;7.788;2023-10-19T08:07:57;5.00;;;3.37;;
11008;SDS011;5557;51.670;7.788;2023-10-19T08:10:26;4.87;;;3.00;;
11008;SDS011;5557;51.670;7.788;2023-10-19T08:12:54;4.53;;;3.13;;
11008;SDS011;5557;51.670;7.788;2023-10-19T08:15:22;6.40;;;3.57;;
11008;SDS011;5557;51.670;7.788;2023-10-19T08:17:50;4.13;;;3.93;;
11008;SDS011;5557;51.670;7.788;2023-10-19T08:20:20;6.50;;;3.23;;
11008;SDS011;5557;51.670;7.788;2023-10-19T08:22:52;5.77;;;3.27;;
11008;SDS011;5557;51.670;7.788;2023-10-19T08:25:20;11.60;;;5.20;;
11008;SDS011;5557;51.670;7.788;2023-10-19T08:27:48;10.27;;;5.70;;
11008;SDS011;5557;51.670;7.788;2023-10-19T08:30:17;4.67;;;4.37;;
11008;SDS011;5557;51.670;7.788;2023-10-19T08:32:53;5.30;;;3.90;;
11008;SDS011;5557;51.670;7.788;2023-10-19T08:35:23;5.23;;;3.10;;
11008;SDS011;5557;51.670;7.788;2023-10-19T08:37:52;3.20;;;3.00;;
11008;SDS011;5557;51.670;7.788;2023-10-19T08:40:20;12.33;;;4.23;;
11008;SDS011;5557;51.670;7.788;2023-10-19T08:42:50;3.97;;;3.57;;
11008;SDS011;5557;51.670;7.788;2023-10-19T08:45:17;3.90;;;3.53;;
11008;SDS011;5557;51.670;7.788;2023-10-19T08:50:26;3.80;;;3.60;;
11008;SDS011;5557;51.670;7.788;2023-10-19T08:52:56;3.23;;;3.03;;
11008;SDS011;5557;51.670;7.788;2023-10-19T08:55:25;10.20;;;3.33;;
11008;SDS011;5557;51.670;7.788;2023-10-19T08:58:12;14.17;;;3.57;;
11008;SDS011;5557;51.670;7.788;2023-10-19T09:00:46;4.80;;;3.20;;
11008;SDS011;5557;51.670;7.788;2023-10-19T09:03:16;4.53;;;3.07;;
11008;SDS011;5557;51.670;7.788;2023-10-19T09:05:44;3.77;;;2.87;;
11008;SDS011;5557;51.670;7.788;2023-10-19T09:08:16;2.93;;;2.83;;
11008;SDS011;5557;51.670;7.788;2023-10-19T09:10:47;7.10;;;3.27;;
11008;SDS011;5557;51.670;7.788;2023-10-19T09:13:16;4.60;;;2.73;;
11008;SDS011;5557;51.670;7.788;2023-10-19T09:15:46;3.00;;;2.57;;
11008;SDS011;5557;51.670;7.788;2023-10-19T09:18:21;2.80;;;2.70;;
11008;SDS011;5557;51.670;7.788;2023-10-19T09:20:51;2.20;;;2.00;;
11008;SDS011;5557;51.670;7.788;2023-10-19T09:23:20;4.60;;;2.80;;
11008;SDS011;5557;51.670;7.788;2023-10-19T09:25:55;2.70;;;2.50;;
11008;SDS011;5557;51.670;7.788;2023-10-19T09:28:23;2.73;;;2.53;;
11008;SDS011;5557;51.670;7.788;2023-10-19T09:30:53;3.00;;;2.80;;
11008;SDS011;5557;51.670;7.788;2023-10-19T09:33:50;2.67;;;2.47;;
11008;SDS011;5557;51.670;7.788;2023-10-19T09:36:19;3.40;;;2.60;;
11008;SDS011;5557;51.670;7.788;2023-10-19T09:38:50;5.13;;;2.90;;
11008;SDS011;5557;51.670;7.788;2023-10-19T09:41:18;4.83;;;3.20;;
11008;SDS011;5557;51.670;7.788;2023-10-19T09:44:04;12.27;;;4.13;;
11008;SDS011;5557;51.670;7.788;2023-10-19T09:46:37;2.80;;;2.60;;
11008;SDS011;5557;51.670;7.788;2023-10-19T09:49:07;3.07;;;2.80;;
11008;SDS011;5557;51.670;7.788;2023-10-19T09:51:38;4.30;;;2.90;;
11008;SDS011;5557;51.670;7.788;2023-10-19T09:54:11;3.93;;;3.10;;
11008;SDS011;5557;51.670;7.788;2023-10-19T09:56:48;6.33;;;2.90;;
11008;SDS011;5557;51.670;7.788;2023-10-19T09:59:22;5.30;;;2.90;;
11008;SDS011;5557;51.670;7.788;2023-10-19T10:02:07;4.60;;;2.57;;
11008;SDS011;5557;51.670;7.788;2023-10-19T10:04:40;4.50;;;2.70;;
11008;SDS011;5557;51.670;7.788;2023-10-19T10:07:10;3.80;;;2.73;;
11008;SDS011;5557;51.670;7.788;2023-10-19T10:09:38;3.70;;;2.77;;
11008;SDS011;5557;51.670;7.788;2023-10-19T10:12:24;4.90;;;2.40;;
11008;SDS011;5557;51.670;7.788;2023-10-19T10:14:57;3.00;;;2.40;;
11008;SDS011;5557;51.670;7.788;2023-10-19T10:17:28;4.23;;;2.70;;
11008;SDS011;5557;51.670;7.788;2023-10-19T10:20:04;4.43;;;2.77;;
11008;SDS011;5557;51.670;7.788;2023-10-19T10:23:15;10.83;;;3.23;;
11008;SDS011;5557;51.670;7.788;2023-10-19T10:25:51;3.73;;;2.73;;
11008;SDS011;5557;51.670;7.788;2023-10-19T10:28:20;3.77;;;3.20;;
11008;SDS011;5557;51.670;7.788;2023-10-19T10:33:46;5.30;;;2.90;;
11008;SDS011;5557;51.670;7.788;2023-10-19T10:36:23;3.00;;;2.30;;
11008;SDS011;5557;51.670;7.788;2023-10-19T10:38:53;3.70;;;2.97;;
11008;SDS011;5557;51.670;7.788;2023-10-19T10:41:31;3.77;;;2.70;;
11008;SDS011;5557;51.670;7.788;2023-10-19T10:43:58;3.70;;;2.70;;
11008;SDS011;5557;51.670;7.788;2023-10-19T10:46:26;7.83;;;2.87;;
11008;SDS011;5557;51.670;7.788;2023-10-19T10:48:55;3.00;;;2.47;;
11008;SDS011;5557;51.670;7.788;2023-10-19T10:51:26;5.27;;;2.73;;
11008;SDS011;5557;51.670;7.788;2023-10-19T10:53:57;4.33;;;2.63;;
11008;SDS011;5557;51.670;7.788;2023-10-19T10:56:25;2.60;;;2.50;;
11008;SDS011;5557;51.670;7.788;2023-10-19T10:58:52;3.97;;;2.57;;
11008;SDS011;5557;51.670;7.788;2023-10-19T11:01:28;3.83;;;2.70;;
11008;SDS011;5557;51.670;7.788;2023-10-19T11:04:06;3.53;;;2.70;;
11008;SDS011;5557;51.670;7.788;2023-10-19T11:06:50;3.23;;;1.97;;
11008;SDS011;5557;51.670;7.788;2023-10-19T11:09:19;2.60;;;2.40;;
11008;SDS011;5557;51.670;7.788;2023-10-19T11:11:46;7.27;;;2.10;;
11008;SDS011;5557;51.670;7.788;2023-10-19T11:14:13;6.93;;;1.97;;
11008;SDS011;5557;51.670;7.788;2023-10-19T11:16:40;3.83;;;2.50;;
11008;SDS011;5557;51.670;7.788;2023-10-19T11:19:07;3.43;;;2.10;;
11008;SDS011;5557;51.670;7.788;2023-10-19T11:21:35;4.23;;;2.10;;
11008;SDS011;5557;51.670;7.788;2023-10-19T11:24:03;4.50;;;2.00;;
11008;SDS011;5557;51.670;7.788;2023-10-19T11:26:30;6.70;;;2.50;;
11008;SDS011;5557;51.670;7.788;2023-10-19T11:29:05;5.13;;;1.77;;
11008;SDS011;5557;51.670;7.788;2023-10-19T11:31:36;6.60;;;2.10;;
11008;SDS011;5557;51.670;7.788;2023-10-19T11:34:07;2.60;;;1.43;;
11008;SDS011;5557;51.670;7.788;2023-10-19T11:36:35;3.23;;;1.67;;
11008;SDS011;5557;51.670;7.788;2023-10-19T11:39:03;5.93;;;2.13;;
11008;SDS011;5557;51.670;7.788;2023-10-19T11:41:38;6.40;;;2.00;;
11008;SDS011;5557;51.670;7.788;2023-10-19T11:44:05;5.60;;;1.37;;
11008;SDS011;5557;51.670;7.788;2023-10-19T11:46:32;6.30;;;1.80;;
11008;SDS011;5557;51.670;7.788;2023-10-19T11:49:00;3.93;;;2.10;;
11008;SDS011;5557;51.670;7.788;2023-10-19T11:51:27;3.90;;;2.07;;
11008;SDS011;5557;51.670;7.788;2023-10-19T11:53:54;2.90;;;1.80;;
11008;SDS011;5557;51.670;7.788;2023-10-19T11:56:23;4.80;;;2.30;;
11008;SDS011;5557;51.670;7.788;2023-10-19T11:58:51;5.63;;;1.70;;
11008;SDS011;5557;51.670;7.788;2023-10-19T12:01:19;3.33;;;1.50;;
11008;SDS011;5557;51.670;7.788;2023-10-19T12:03:46;18.07;;;1.80;;
11008;SDS011;5557;51.670;7.788;2023-10-19T12:06:15;4.97;;;1.40;;
11008;SDS011;5557;51.670;7.788;2023-10-19T12:08:46;5.17;;;1.40;;
11008;SDS011;5557;51.670;7.788;2023-10-19T12:11:13;5.07;;;1.40;;
11008;SDS011;5557;51.670;7.788;2023-10-19T12:13:45;3.67;;;1.43;;
11008;SDS011;5557;51.670;7.788;2023-10-19T12:16:14;3.30;;;1.50;;
11008;SDS011;5557;51.670;7.788;2023-10-19T12:18:43;4.80;;;1.70;;
11008;SDS011;5557;51.670;7.788;2023-10-19T12:21:11;2.50;;;1.80;;
11008;SDS011;5557;51.670;7.788;2023-10-19T12:23:38;5.03;;;1.30;;
11008;SDS011;5557;51.670;7.788;2023-10-19T12:26:07;5.63;;;1.53;;
11008;SDS011;5557;51.670;7.788;2023-10-19T12:28:41;2.37;;;1.57;;
11008;SDS011;5557;51.670;7.788;2023-10-19T12:31:12;5.13;;;1.73;;
11008;SDS011;5557;51.670;7.788;2023-10-19T12:33:40;2.77;;;1.67;;
11008;SDS011;5557;51.670;7.788;2023-10-19T12:36:08;6.70;;;1.30;;
11008;SDS011;5557;51.670;7.788;2023-10-19T12:39:14;5.40;;;1.40;;
11008;SDS011;5557;51.670;7.788;2023-10-19T12:42:02;2.63;;;1.43;;
11008;SDS011;5557;51.670;7.788;2023-10-19T12:44:30;2.27;;;1.30;;
11008;SDS011;5557;51.670;7.788;2023-10-19T12:47:05;1.73;;;1.27;;
11008;SDS011;5557;51.670;7.788;2023-10-19T12:49:37;3.40;;;1.70;;
11008;SDS011;5557;51.670;7.788;2023-10-19T12:52:05;8.53;;;2.33;;
11008;SDS011;5557;51.670;7.788;2023-10-19T12:54:34;7.23;;;2.53;;
11008;SDS011;5557;51.670;7.788;2023-10-19T12:57:02;3.37;;;1.50;;
11008;SDS011;5557;51.670;7.788;2023-10-19T12:59:36;8.10;;;2.60;;
11008;SDS011;5557;51.670;7.788;2023-10-19T13:02:05;3.17;;;1.50;;
11008;SDS011;5557;51.670;7.788;2023-10-19T13:04:35;8.27;;;1.60;;
11008;SDS011;5557;51.670;7.788;2023-10-19T13:07:03;11.50;;;1.60;;
11008;SDS011;5557;51.670;7.788;2023-10-19T13:09:31;3.77;;;1.17;;
11008;SDS011;5557;51.670;7.788;2023-10-19T13:11:59;2.77;;;1.17;;
11008;SDS011;5557;51.670;7.788;2023-10-19T13:14:27;6.07;;;1.07;;
11008;SDS011;5557;51.670;7.788;2023-10-19T13:16:54;3.07;;;1.63;;
11008;SDS011;5557;51.670;7.788;2023-10-19T13:19:21;4.30;;;1.60;;
11008;SDS011;5557;51.670;7.788;2023-10-19T13:21:51;1.50;;;1.20;;
11008;SDS011;5557;51.670;7.788;2023-10-19T13:24:19;5.10;;;1.30;;
11008;SDS011;5557;51.670;7.788;2023-10-19T13:26:49;1.70;;;1.40;;
11008;SDS011;5557;51.670;7.788;2023-10-19T13:29:17;7.00;;;1.10;;
11008;SDS011;5557;51.670;7.788;2023-10-19T13:31:46;9.40;;;1.60;;
11008;SDS011;5557;51.670;7.788;2023-10-19T13:34:17;4.77;;;1.40;;
11008;SDS011;5557;51.670;7.788;2023-10-19T13:36:45;5.20;;;2.07;;
11008;SDS011;5557;51.670;7.788;2023-10-19T13:39:12;9.37;;;2.17;;
11008;SDS011;5557;51.670;7.788;2023-10-19T13:41:43;11.20;;;1.70;;
11008;SDS011;5557;51.670;7.788;2023-10-19T13:44:10;4.40;;;1.90;;
11008;SDS011;5557;51.670;7.788;2023-10-19T13:46:41;1.83;;;1.50;;
11008;SDS011;5557;51.670;7.788;2023-10-19T13:49:08;6.83;;;1.60;;
11008;SDS011;5557;51.670;7.788;2023-10-19T13:51:36;6.53;;;1.57;;
11008;SDS011;5557;51.670;7.788;2023-10-19T13:54:05;5.60;;;2.00;;
11008;SDS011;5557;51.670;7.788;2023-10-19T13:56:32;4.40;;;1.60;;
11008;SDS011;5557;51.670;7.788;2023-10-19T13:59:01;2.73;;;1.50;;
11008;SDS011;5557;51.670;7.788;2023-10-19T14:01:28;6.10;;;2.90;;
11008;SDS011;5557;51.670;7.788;2023-10-19T14:03:59;5.47;;;3.03;;
11008;SDS011;5557;51.670;7.788;2023-10-19T14:06:32;6.43;;;3.07;;
11008;SDS011;5557;51.670;7.788;2023-10-19T14:08:59;6.90;;;3.30;;
11008;SDS011;5557;51.670;7.788;2023-10-19T14:11:26;7.43;;;2.80;;
11008;SDS011;5557;51.670;7.788;2023-10-19T14:13:53;5.93;;;3.17;;
11008;SDS011;5557;51.670;7.788;2023-10-19T14:16:21;8.60;;;4.53;;
11008;SDS011;5557;51.670;7.788;2023-10-19T14:18:52;3.23;;;1.83;;
11008;SDS011;5557;51.670;7.788;2023-10-19T14:21:19;5.10;;;2.17;;
11008;SDS011;5557;51.670;7.788;2023-10-19T14:23:46;3.70;;;2.60;;
11008;SDS011;5557;51.670;7.788;2023-10-19T14:26:14;2.37;;;1.67;;
11008;SDS011;5557;51.670;7.788;2023-10-19T14:28:42;3.30;;;2.70;;
11008;SDS011;5557;51.670;7.788;2023-10-19T14:31:09;3.97;;;2.17;;
11008;SDS011;5557;51.670;7.788;2023-10-19T14:33:42;2.27;;;1.90;;
11008;SDS011;5557;51.670;7.788;2023-10-19T14:36:10;24.80;;;17.47;;
11008;SDS011;5557;51.670;7.788;2023-10-19T14:38:37;12.33;;;5.03;;
11008;SDS011;5557;51.670;7.788;2023-10-19T14:41:06;9.97;;;2.37;;
11008;SDS011;5557;51.670;7.788;2023-10-19T14:43:36;3.63;;;2.23;;
11008;SDS011;5557;51.670;7.788;2023-10-19T14:46:07;10.57;;;7.00;;
11008;SDS011;5557;51.670;7.788;2023-10-19T14:48:34;14.30;;;8.10;;
11008;SDS011;5557;51.670;7.788;2023-10-19T14:51:02;9.83;;;6.00;;
11008;SDS011;5557;51.670;7.788;2023-10-19T14:53:29;5.17;;;2.77;;
11008;SDS011;5557;51.670;7.788;2023-10-19T14:55:57;6.50;;;3.10;;
11008;SDS011;5557;51.670;7.788;2023-10-19T14:58:24;6.53;;;2.77;;
11008;SDS011;5557;51.670;7.788;2023-10-19T15:00:56;8.43;;;2.97;;
11008;SDS011;5557;51.670;7.788;2023-10-19T15:03:23;8.20;;;2.60;;
11008;SDS011;5557;51.670;7.788;2023-10-19T15:05:51;6.47;;;3.00;;
11008;SDS011;5557;51.670;7.788;2023-10-19T15:08:19;7.90;;;2.30;;
11008;SDS011;5557;51.670;7.788;2023-10-19T15:10:47;2.67;;;2.30;;
11008;SDS011;5557;51.670;7.788;2023-10-19T15:13:14;12.93;;;3.00;;
11008;SDS011;5557;51.670;7.788;2023-10-19T15:15:42;8.80;;;2.40;;
11008;SDS011;5557;51.670;7.788;2023-10-19T15:18:09;5.20;;;2.30;;
11008;SDS011;5557;51.670;7.788;2023-10-19T15:20:36;6.17;;;2.30;;
11008;SDS011;5557;51.670;7.788;2023-10-19T15:23:03;7.87;;;2.50;;